Time;durP1;ratioP1;P1;durP2;ratioP2;P2;SDS_P1;SDS_P2;PMS_P1;PMS_P2;Temp;Humidity;BMP_temperature;BMP_pressure;BME280_temperature;BME280_humidity;BME280_pressure;Samples;Min_cycle;Max_cycle;Signal;HPM_P1;HPM_P2
2022/08/02 00:02:17;;;;;;;1.35;1.15;;;;;;;;;;4862914;29;20044;-67
2022/08/02 00:04:43;;;;;;;3.20;1.17;;;;;;;;;;4863098;29;20037;-67
2022/08/02 00:07:09;;;;;;;2.95;1.38;;;;;;;;;;4862976;29;20028;-66
2022/08/02 00:09:36;;;;;;;2.58;1.10;;;;;;;;;;4862917;29;20433;-66
2022/08/02 00:12:02;;;;;;;1.95;1.30;;;;;;;;;;4862738;29;20026;-66
2022/08/02 00:14:28;;;;;;;2.95;1.40;;;;;;;;;;4862776;29;20029;-67
2022/08/02 00:16:55;;;;;;;2.75;1.08;;;;;;;;;;4863046;29;20093;-66
2022/08/02 00:19:21;;;;;;;1.73;1.20;;;;;;;;;;4862944;29;20483;-67
2022/08/02 00:21:47;;;;;;;2.63;1.05;;;;;;;;;;4862449;29;20048;-66
2022/08/02 00:24:14;;;;;;;1.52;1.05;;;;;;;;;;4862466;29;20029;-66
2022/08/02 00:26:40;;;;;;;3.17;1.25;;;;;;;;;;4862174;29;20026;-66
2022/08/02 00:29:07;;;;;;;2.45;1.10;;;;;;;;;;4862881;29;20059;-66
2022/08/02 00:31:33;;;;;;;2.70;1.13;;;;;;;;;;4862559;29;20021;-66
2022/08/02 00:33:59;;;;;;;2.30;1.10;;;;;;;;;;4862355;29;20467;-66
2022/08/02 00:36:26;;;;;;;1.42;1.20;;;;;;;;;;4862302;29;20046;-67
2022/08/02 00:38:52;;;;;;;5.15;1.42;;;;;;;;;;4862568;29;20503;-66
2022/08/02 00:41:20;;;;;;;1.30;1.08;;;;;;;;;;4862104;29;20037;-66
2022/08/02 00:43:47;;;;;;;1.30;1.02;;;;;;;;;;4862370;29;20502;-66
2022/08/02 00:46:15;;;;;;;2.00;1.10;;;;;;;;;;4862356;29;20034;-65
2022/08/02 00:48:41;;;;;;;1.20;1.10;;;;;;;;;;4862309;29;20396;-66
2022/08/02 00:51:08;;;;;;;2.35;1.42;;;;;;;;;;4862207;29;20037;-66
2022/08/02 00:53:34;;;;;;;3.10;1.38;;;;;;;;;;4861699;29;20103;-66
2022/08/02 00:56:00;;;;;;;4.32;1.50;;;;;;;;;;4861774;29;20045;-66
2022/08/02 00:58:27;;;;;;;1.65;1.20;;;;;;;;;;4862016;29;20017;-66
2022/08/02 01:00:56;;;;;;;5.82;1.55;;;;;;;;;;4862134;29;20031;-66
2022/08/02 01:03:23;;;;;;;2.13;1.10;;;;;;;;;;4862211;29;20056;-66
2022/08/02 01:05:49;;;;;;;1.75;1.63;;;;;;;;;;4862367;29;20034;-66
2022/08/02 01:08:16;;;;;;;2.85;1.67;;;;;;;;;;4861948;29;20033;-66
2022/08/02 01:10:43;;;;;;;4.22;1.40;;;;;;;;;;4861556;29;20022;-67
2022/08/02 01:13:09;;;;;;;1.40;1.27;;;;;;;;;;4862110;29;20131;-66
2022/08/02 01:15:38;;;;;;;4.00;1.25;;;;;;;;;;4861627;29;20037;-66
2022/08/02 01:18:12;;;;;;;4.55;1.38;;;;;;;;;;4861601;29;20041;-66
2022/08/02 01:20:57;;;;;;;3.17;1.33;;;;;;;;;;4861314;29;20448;-66
2022/08/02 01:23:42;;;;;;;1.45;1.30;;;;;;;;;;4861368;29;20028;-66
2022/08/02 01:26:18;;;;;;;1.42;1.27;;;;;;;;;;4861449;29;20032;-66
2022/08/02 01:28:53;;;;;;;3.30;1.52;;;;;;;;;;4861574;29;20034;-66
2022/08/02 01:31:34;;;;;;;2.80;1.50;;;;;;;;;;4861555;29;20391;-66
2022/08/02 01:34:05;;;;;;;10.00;1.75;;;;;;;;;;4861395;29;20032;-66
2022/08/02 01:36:43;;;;;;;2.40;1.25;;;;;;;;;;4861222;29;20038;-66
2022/08/02 01:39:13;;;;;;;2.47;1.48;;;;;;;;;;4861197;29;20025;-66
2022/08/02 01:41:40;;;;;;;2.08;1.30;;;;;;;;;;4861327;29;20032;-66
2022/08/02 01:44:07;;;;;;;2.97;1.40;;;;;;;;;;4861236;29;20033;-66
2022/08/02 01:46:34;;;;;;;1.25;1.15;;;;;;;;;;4861273;29;20029;-66
2022/08/02 01:49:02;;;;;;;2.05;1.30;;;;;;;;;;4861137;29;20044;-66
2022/08/02 01:54:17;;;;;;;2.38;1.60;;;;;;;;;;4860617;29;20030;-66
2022/08/02 01:56:44;;;;;;;2.13;1.60;;;;;;;;;;4861075;29;20053;-66
2022/08/02 01:59:12;;;;;;;2.70;1.23;;;;;;;;;;4861433;29;20030;-66
2022/08/02 02:01:40;;;;;;;3.38;1.33;;;;;;;;;;4861184;29;20034;-66
2022/08/02 02:04:07;;;;;;;1.88;1.20;;;;;;;;;;4860045;29;20406;-66
2022/08/02 02:06:34;;;;;;;2.53;1.40;;;;;;;;;;4860570;29;20033;-66
2022/08/02 02:09:01;;;;;;;1.67;1.30;;;;;;;;;;4860814;29;20486;-66
2022/08/02 02:11:28;;;;;;;6.82;1.70;;;;;;;;;;4860919;29;20034;-66
2022/08/02 02:13:57;;;;;;;4.10;1.40;;;;;;;;;;4860758;29;20029;-66
2022/08/02 02:16:26;;;;;;;6.97;1.30;;;;;;;;;;4860665;29;20045;-66
2022/08/02 02:18:53;;;;;;;1.65;1.55;;;;;;;;;;4860490;29;20037;-66
2022/08/02 02:21:19;;;;;;;3.15;1.65;;;;;;;;;;4860282;29;20521;-66
2022/08/02 02:23:45;;;;;;;3.05;1.77;;;;;;;;;;4860556;29;20030;-66
2022/08/02 02:26:14;;;;;;;1.55;1.40;;;;;;;;;;4860504;29;20551;-66
2022/08/02 02:28:41;;;;;;;1.80;1.52;;;;;;;;;;4860607;29;20029;-66
2022/08/02 02:31:09;;;;;;;2.60;1.55;;;;;;;;;;4860737;29;20036;-66
2022/08/02 02:33:39;;;;;;;3.20;1.52;;;;;;;;;;4860728;29;20037;-66
2022/08/02 02:36:07;;;;;;;2.05;1.80;;;;;;;;;;4860023;29;20040;-66
2022/08/02 02:38:34;;;;;;;2.13;1.45;;;;;;;;;;4860783;29;20037;-66
2022/08/02 02:41:01;;;;;;;4.35;1.58;;;;;;;;;;4860403;29;20107;-66
2022/08/02 02:43:28;;;;;;;2.10;1.60;;;;;;;;;;4860434;29;20495;-66
2022/08/02 02:45:55;;;;;;;6.85;1.58;;;;;;;;;;4860466;29;20029;-66
2022/08/02 02:48:21;;;;;;;1.70;1.60;;;;;;;;;;4860248;29;20417;-66
2022/08/02 02:50:48;;;;;;;2.85;1.52;;;;;;;;;;4860354;29;20042;-66
2022/08/02 02:53:16;;;;;;;1.83;1.35;;;;;;;;;;4860340;29;20022;-66
2022/08/02 02:55:43;;;;;;;4.80;1.60;;;;;;;;;;4860215;29;20059;-66
2022/08/02 02:58:10;;;;;;;4.22;1.40;;;;;;;;;;4860254;29;20047;-66
2022/08/02 03:03:21;;;;;;;2.65;1.70;;;;;;;;;;4860209;29;20030;-66
2022/08/02 03:05:48;;;;;;;2.35;1.52;;;;;;;;;;4859914;29;20034;-66
2022/08/02 03:08:14;;;;;;;4.35;1.50;;;;;;;;;;4860532;29;20041;-66
2022/08/02 03:10:42;;;;;;;2.20;1.52;;;;;;;;;;4860064;29;20029;-66
2022/08/02 03:13:08;;;;;;;6.40;1.92;;;;;;;;;;4860012;29;20567;-66
2022/08/02 03:15:36;;;;;;;4.72;1.50;;;;;;;;;;4860865;29;20040;-66
2022/08/02 03:18:02;;;;;;;2.13;1.65;;;;;;;;;;4863766;29;20041;-66
2022/08/02 03:20:29;;;;;;;1.98;1.58;;;;;;;;;;4863117;29;20039;-66
2022/08/02 03:22:55;;;;;;;2.53;1.67;;;;;;;;;;4864049;29;20025;-66
2022/08/02 03:25:21;;;;;;;6.70;1.70;;;;;;;;;;4863693;29;20025;-66
2022/08/02 03:27:48;;;;;;;2.58;1.67;;;;;;;;;;4863886;29;20035;-66
2022/08/02 03:30:14;;;;;;;1.90;1.70;;;;;;;;;;4863567;29;20034;-66
2022/08/02 03:32:46;;;;;;;3.20;1.70;;;;;;;;;;4863681;29;20073;-66
2022/08/02 03:35:14;;;;;;;2.08;1.63;;;;;;;;;;4863171;29;20051;-66
2022/08/02 03:37:41;;;;;;;5.10;1.52;;;;;;;;;;4863516;29;20022;-66
2022/08/02 03:40:08;;;;;;;2.38;1.70;;;;;;;;;;4863521;29;20487;-66
2022/08/02 03:42:34;;;;;;;4.95;1.88;;;;;;;;;;4863214;29;20373;-66
2022/08/02 03:45:02;;;;;;;3.92;1.80;;;;;;;;;;4863433;29;20025;-66
2022/08/02 03:47:29;;;;;;;2.83;1.67;;;;;;;;;;4863319;29;20037;-66
2022/08/02 03:49:55;;;;;;;2.13;1.77;;;;;;;;;;4863049;29;20085;-66
2022/08/02 03:52:23;;;;;;;4.72;1.83;;;;;;;;;;4863167;29;20067;-66
2022/08/02 03:54:49;;;;;;;1.90;1.70;;;;;;;;;;4846429;29;20053;-66
2022/08/02 03:57:15;;;;;;;1.60;1.50;;;;;;;;;;4863284;29;20090;-66
2022/08/02 03:59:45;;;;;;;5.22;1.67;;;;;;;;;;4863141;29;20037;-66
2022/08/02 04:02:12;;;;;;;1.85;1.60;;;;;;;;;;4863198;29;20040;-66
2022/08/02 04:04:39;;;;;;;2.78;1.70;;;;;;;;;;4862591;29;20486;-66
2022/08/02 04:07:06;;;;;;;2.58;2.15;;;;;;;;;;4862797;29;20040;-66
2022/08/02 04:09:32;;;;;;;5.35;1.95;;;;;;;;;;4863204;29;20026;-66
2022/08/02 04:11:58;;;;;;;3.25;1.80;;;;;;;;;;4863093;29;20025;-66
2022/08/02 04:14:26;;;;;;;4.30;1.73;;;;;;;;;;4862797;29;20033;-66
2022/08/02 04:16:53;;;;;;;4.22;1.80;;;;;;;;;;4862804;29;20037;-66
2022/08/02 04:19:27;;;;;;;1.85;1.75;;;;;;;;;;4862228;29;20108;-66
2022/08/02 04:21:55;;;;;;;2.38;1.80;;;;;;;;;;4862569;29;20033;-66
2022/08/02 04:24:30;;;;;;;15.27;2.10;;;;;;;;;;4862550;29;20013;-66
2022/08/02 04:26:58;;;;;;;8.40;1.92;;;;;;;;;;4862140;29;20030;-66
2022/08/02 04:29:25;;;;;;;24.00;2.75;;;;;;;;;;4862482;29;20020;-66
2022/08/02 04:31:52;;;;;;;10.90;2.35;;;;;;;;;;4862386;29;20554;-66
2022/08/02 04:34:19;;;;;;;4.63;1.90;;;;;;;;;;4862598;29;20021;-66
2022/08/02 04:36:46;;;;;;;3.50;1.65;;;;;;;;;;4862377;29;20041;-66
2022/08/02 04:39:13;;;;;;;3.45;1.80;;;;;;;;;;4862324;29;20116;-66
2022/08/02 04:41:43;;;;;;;3.28;1.60;;;;;;;;;;4862341;29;20494;-66
2022/08/02 04:44:09;;;;;;;3.57;1.73;;;;;;;;;;4862767;29;20034;-66
2022/08/02 04:46:36;;;;;;;5.03;2.20;;;;;;;;;;4845466;29;20040;-66
2022/08/02 04:49:03;;;;;;;4.53;2.05;;;;;;;;;;4862371;29;20032;-66
2022/08/02 04:51:29;;;;;;;4.13;2.00;;;;;;;;;;4862316;29;20029;-66
2022/08/02 04:53:55;;;;;;;2.60;1.83;;;;;;;;;;4862301;29;20093;-66
2022/08/02 04:56:21;;;;;;;3.38;1.70;;;;;;;;;;4862152;29;20044;-66
2022/08/02 04:58:48;;;;;;;33.88;3.60;;;;;;;;;;4861989;29;20497;-66
2022/08/02 05:01:14;;;;;;;8.75;3.17;;;;;;;;;;4861572;29;20040;-66
2022/08/02 05:03:40;;;;;;;18.15;2.63;;;;;;;;;;4862122;29;20037;-66
2022/08/02 05:06:07;;;;;;;57.55;4.60;;;;;;;;;;4861940;29;20081;-66
2022/08/02 05:08:33;;;;;;;16.55;2.70;;;;;;;;;;4861889;29;20364;-66
2022/08/02 05:10:59;;;;;;;15.80;3.33;;;;;;;;;;4861811;29;20044;-66
2022/08/02 05:13:26;;;;;;;23.45;3.25;;;;;;;;;;4861773;29;20062;-66
2022/08/02 05:15:52;;;;;;;22.25;3.00;;;;;;;;;;4861665;29;20093;-66
2022/08/02 05:18:18;;;;;;;2.60;2.15;;;;;;;;;;4861505;29;20042;-66
2022/08/02 05:20:45;;;;;;;5.00;2.00;;;;;;;;;;4845303;29;20034;-66
2022/08/02 05:23:11;;;;;;;6.70;2.30;;;;;;;;;;4861805;29;20034;-66
2022/08/02 05:25:37;;;;;;;5.18;2.10;;;;;;;;;;4861433;29;20033;-66
2022/08/02 05:28:04;;;;;;;3.45;1.83;;;;;;;;;;4861812;29;20092;-66
2022/08/02 05:30:30;;;;;;;5.28;2.10;;;;;;;;;;4861240;29;20034;-66
2022/08/02 05:32:56;;;;;;;6.43;2.17;;;;;;;;;;4861445;29;20495;-66
2022/08/02 05:35:26;;;;;;;4.22;2.15;;;;;;;;;;4861305;29;20052;-66
2022/08/02 05:37:53;;;;;;;2.70;2.10;;;;;;;;;;4861684;29;20034;-66
2022/08/02 05:40:19;;;;;;;7.10;2.30;;;;;;;;;;4861286;29;20077;-66
2022/08/02 05:42:45;;;;;;;6.05;2.30;;;;;;;;;;4861412;29;20376;-66
2022/08/02 05:45:12;;;;;;;4.25;2.22;;;;;;;;;;4861001;29;20421;-66
2022/08/02 05:47:38;;;;;;;3.90;2.38;;;;;;;;;;4844695;29;20029;-66
2022/08/02 05:50:08;;;;;;;4.72;2.30;;;;;;;;;;4861377;29;20037;-66
2022/08/02 05:52:55;;;;;;;10.40;2.38;;;;;;;;;;4861297;29;20032;-66
2022/08/02 05:55:21;;;;;;;9.35;2.00;;;;;;;;;;4822294;29;20039;-66
2022/08/02 05:57:52;;;;;;;7.07;2.30;;;;;;;;;;4822505;29;20038;-66
2022/08/02 06:00:18;;;;;;;;;;;;;;;;;;4822343;29;20508;-66
2022/08/02 06:02:47;;;;;;;10.95;2.40;;;;;;;;;;4822254;29;20439;-66
2022/08/02 06:05:15;;;;;;;14.35;2.67;;;;;;;;;;4808684;29;20034;-63
2022/08/02 06:07:42;;;;;;;13.30;2.30;;;;;;;;;;4804606;29;20054;-62
2022/08/02 06:10:12;;;;;;;14.73;2.63;;;;;;;;;;4803080;29;20033;-62
2022/08/02 06:12:46;;;;;;;52.45;4.70;;;;;;;;;;4803224;29;20571;-63
2022/08/02 06:15:14;;;;;;;13.48;3.10;;;;;;;;;;4801773;29;20027;-62
2022/08/02 06:17:40;;;;;;;8.55;2.35;;;;;;;;;;4800423;29;20042;-63
2022/08/02 06:20:07;;;;;;;8.48;2.47;;;;;;;;;;4817907;29;20035;-63
2022/08/02 06:22:34;;;;;;;10.95;2.50;;;;;;;;;;4820637;29;20038;-63
2022/08/02 06:25:01;;;;;;;8.25;2.10;;;;;;;;;;4807263;29;20027;-63
2022/08/02 06:27:28;;;;;;;8.25;2.47;;;;;;;;;;4806161;29;20022;-63
2022/08/02 06:29:55;;;;;;;3.45;1.92;;;;;;;;;;4820151;29;20142;-64
2022/08/02 06:32:21;;;;;;;11.70;2.75;;;;;;;;;;4822543;29;20035;-64
2022/08/02 06:34:48;;;;;;;10.13;2.50;;;;;;;;;;4840759;29;20026;-64
2022/08/02 06:37:22;;;;;;;12.68;2.63;;;;;;;;;;4840283;29;20037;-64
2022/08/02 06:39:50;;;;;;;33.78;3.95;;;;;;;;;;4840034;29;20468;-64
2022/08/02 06:42:21;;;;;;;68.57;4.57;;;;;;;;;;4840553;29;20038;-64
2022/08/02 06:44:48;;;;;;;11.20;2.90;;;;;;;;;;4841214;29;20022;-64
2022/08/02 06:47:14;;;;;;;106.00;7.60;;;;;;;;;;4840953;29;20037;-64
2022/08/02 06:49:41;;;;;;;23.80;3.30;;;;;;;;;;4840502;29;20033;-64
2022/08/02 06:52:07;;;;;;;12.25;2.65;;;;;;;;;;4840961;29;20032;-64
2022/08/02 06:54:34;;;;;;;14.40;2.95;;;;;;;;;;4845099;29;20491;-64
2022/08/02 06:57:01;;;;;;;24.33;3.83;;;;;;;;;;4831838;29;20049;-64
2022/08/02 06:59:27;;;;;;;13.18;2.63;;;;;;;;;;4839250;29;20026;-64
2022/08/02 07:01:54;;;;;;;29.60;3.90;;;;;;;;;;4840222;29;20037;-64
2022/08/02 07:04:20;;;;;;;12.38;2.72;;;;;;;;;;4839601;29;20029;-64
2022/08/02 07:06:46;;;;;;;13.02;2.72;;;;;;;;;;4840617;29;20044;-64
2022/08/02 07:09:12;;;;;;;23.42;3.65;;;;;;;;;;4840220;29;20053;-64
2022/08/02 07:11:39;;;;;;;9.80;2.72;;;;;;;;;;4839741;29;20034;-64
2022/08/02 07:14:05;;;;;;;7.88;3.50;;;;;;;;;;4840379;29;20044;-64
2022/08/02 07:16:32;;;;;;;11.32;3.63;;;;;;;;;;4840243;29;20064;-64
2022/08/02 07:18:58;;;;;;;17.20;4.88;;;;;;;;;;4841612;29;20060;-64
2022/08/02 07:21:24;;;;;;;5.10;3.42;;;;;;;;;;4846670;29;20504;-64
2022/08/02 07:23:51;;;;;;;4.35;3.35;;;;;;;;;;4838991;29;20037;-64
2022/08/02 07:26:17;;;;;;;7.70;3.35;;;;;;;;;;4839514;29;20099;-64
2022/08/02 07:28:43;;;;;;;5.88;2.88;;;;;;;;;;4839661;29;20420;-64
2022/08/02 07:31:10;;;;;;;6.15;2.83;;;;;;;;;;4839657;29;20034;-64
2022/08/02 07:33:36;;;;;;;4.95;2.80;;;;;;;;;;4823323;29;20441;-64
2022/08/02 07:36:02;;;;;;;6.28;2.72;;;;;;;;;;4839989;29;20094;-65
2022/08/02 07:38:29;;;;;;;11.23;2.90;;;;;;;;;;4848092;29;20030;-64
2022/08/02 07:40:55;;;;;;;20.75;3.22;;;;;;;;;;4840011;29;20540;-65
2022/08/02 07:43:21;;;;;;;9.32;2.60;;;;;;;;;;4838792;29;20036;-65
2022/08/02 07:45:48;;;;;;;4.70;2.60;;;;;;;;;;4839824;29;20038;-65
2022/08/02 07:48:14;;;;;;;3.28;2.33;;;;;;;;;;4839686;29;20034;-65
2022/08/02 07:50:40;;;;;;;4.75;2.50;;;;;;;;;;4837832;29;20042;-65
2022/08/02 07:53:06;;;;;;;7.97;2.60;;;;;;;;;;4839672;29;20030;-65
2022/08/02 07:55:33;;;;;;;6.88;2.40;;;;;;;;;;4838831;29;20044;-64
2022/08/02 07:57:59;;;;;;;4.53;1.98;;;;;;;;;;4838996;29;20036;-65
2022/08/02 08:00:25;;;;;;;10.02;2.58;;;;;;;;;;4838901;29;20040;-66
2022/08/02 08:02:52;;;;;;;14.55;2.60;;;;;;;;;;4840737;29;20038;-66
2022/08/02 08:05:18;;;;;;;6.00;2.03;;;;;;;;;;4842318;29;20029;-66
2022/08/02 08:07:45;;;;;;;12.70;2.95;;;;;;;;;;4841134;29;20050;-66
2022/08/02 08:10:11;;;;;;;2.65;2.03;;;;;;;;;;4842237;29;20026;-66
2022/08/02 08:12:38;;;;;;;5.40;2.22;;;;;;;;;;4841761;29;20086;-66
2022/08/02 08:15:04;;;;;;;8.20;2.67;;;;;;;;;;4841775;29;20411;-66
2022/08/02 08:17:31;;;;;;;46.80;3.92;;;;;;;;;;4842365;29;20034;-66
2022/08/02 08:19:57;;;;;;;10.85;2.70;;;;;;;;;;4856064;29;20032;-66
2022/08/02 08:22:24;;;;;;;9.60;2.65;;;;;;;;;;4860550;29;20056;-66
2022/08/02 08:24:50;;;;;;;7.10;2.53;;;;;;;;;;4860566;29;20030;-66
2022/08/02 08:27:17;;;;;;;70.00;5.68;;;;;;;;;;4861177;29;20033;-66
2022/08/02 08:29:43;;;;;;;8.95;2.40;;;;;;;;;;4861158;29;20418;-66
2022/08/02 08:32:10;;;;;;;16.52;2.70;;;;;;;;;;4860606;29;20037;-66
2022/08/02 08:34:36;;;;;;;33.58;3.72;;;;;;;;;;4860703;29;20040;-66
2022/08/02 08:37:03;;;;;;;25.02;3.63;;;;;;;;;;4860527;29;20047;-66
2022/08/02 08:39:29;;;;;;;4.88;2.30;;;;;;;;;;4860448;29;20041;-66
2022/08/02 08:41:56;;;;;;;8.98;2.50;;;;;;;;;;4860515;29;20033;-65
2022/08/02 08:44:22;;;;;;;6.07;2.38;;;;;;;;;;4860355;29;20033;-66
2022/08/02 08:46:49;;;;;;;3.42;2.13;;;;;;;;;;4860305;29;20414;-66
2022/08/02 08:49:32;;;;;;;2.17;1.85;;;;;;;;;;4842475;29;20038;-66
2022/08/02 08:52:01;;;;;;;4.32;2.00;;;;;;;;;;4840950;29;20044;-66
2022/08/02 08:54:29;;;;;;;5.93;2.20;;;;;;;;;;4840527;29;20559;-66
2022/08/02 08:56:56;;;;;;;4.07;1.90;;;;;;;;;;4825237;29;20057;-66
2022/08/02 08:59:23;;;;;;;3.97;2.10;;;;;;;;;;4841890;29;20411;-66
2022/08/02 09:01:50;;;;;;;4.40;1.92;;;;;;;;;;4841779;29;20026;-66
2022/08/02 09:04:17;;;;;;;2.38;1.80;;;;;;;;;;4841364;29;20029;-66
2022/08/02 09:06:44;;;;;;;4.80;2.28;;;;;;;;;;4841316;29;20391;-66
2022/08/02 09:09:10;;;;;;;7.78;2.13;;;;;;;;;;4840589;29;20527;-66
2022/08/02 09:11:36;;;;;;;7.72;2.00;;;;;;;;;;4841242;29;20022;-66
2022/08/02 09:14:03;;;;;;;10.40;6.50;;;;;;;;;;4840679;29;20033;-66
2022/08/02 09:16:30;;;;;;;5.85;2.10;;;;;;;;;;4840386;29;20050;-66
2022/08/02 09:18:56;;;;;;;3.40;1.90;;;;;;;;;;4847784;29;20580;-66
2022/08/02 09:21:23;;;;;;;3.85;1.75;;;;;;;;;;4858775;29;20037;-66
2022/08/02 09:23:54;;;;;;;2.20;1.70;;;;;;;;;;4840354;29;20056;-66
2022/08/02 09:26:21;;;;;;;3.58;1.98;;;;;;;;;;4841153;29;20025;-66
2022/08/02 09:28:49;;;;;;;4.55;1.63;;;;;;;;;;4841695;29;20044;-66
2022/08/02 09:31:18;;;;;;;5.22;1.77;;;;;;;;;;4840223;29;20034;-66
2022/08/02 09:33:49;;;;;;;5.25;1.88;;;;;;;;;;4840625;29;20036;-66
2022/08/02 09:36:16;;;;;;;3.83;1.80;;;;;;;;;;4840657;29;20038;-66
2022/08/02 09:38:53;;;;;;;4.57;1.63;;;;;;;;;;4841041;29;20030;-66
2022/08/02 09:41:21;;;;;;;2.90;1.52;;;;;;;;;;4841152;29;20048;-66
2022/08/02 09:43:47;;;;;;;2.55;1.58;;;;;;;;;;4841156;29;20046;-66
2022/08/02 09:46:14;;;;;;;4.63;1.73;;;;;;;;;;4840926;29;20418;-66
2022/08/02 09:48:47;;;;;;;4.30;1.67;;;;;;;;;;4840145;29;20036;-66
2022/08/02 09:51:16;;;;;;;5.68;2.13;;;;;;;;;;4840002;29;20026;-66
2022/08/02 09:53:43;;;;;;;3.67;1.42;;;;;;;;;;4839995;29;20033;-66
2022/08/02 09:56:09;;;;;;;3.85;1.40;;;;;;;;;;4840524;29;20143;-66
2022/08/02 09:58:39;;;;;;;4.10;1.70;;;;;;;;;;4840352;29;20032;-66
2022/08/02 10:01:05;;;;;;;3.87;1.90;;;;;;;;;;4840267;29;20034;-66
2022/08/02 10:03:32;;;;;;;2.35;1.50;;;;;;;;;;4840327;29;20106;-65
2022/08/02 10:06:00;;;;;;;2.72;1.50;;;;;;;;;;4839731;29;20052;-66
2022/08/02 10:08:26;;;;;;;4.93;1.50;;;;;;;;;;4839751;29;20042;-66
2022/08/02 10:10:59;;;;;;;1.73;1.20;;;;;;;;;;4840279;29;20032;-65
2022/08/02 10:13:29;;;;;;;2.67;1.30;;;;;;;;;;4840298;29;20036;-66
2022/08/02 10:15:55;;;;;;;;;;;;;;;;;;4840672;29;20082;-66
2022/08/02 10:18:22;;;;;;;2.67;1.30;;;;;;;;;;4842270;29;20386;-66
2022/08/02 10:20:49;;;;;;;4.38;1.50;;;;;;;;;;4845872;29;20038;-66
2022/08/02 10:23:16;;;;;;;4.65;1.60;;;;;;;;;;4840129;29;20476;-66
2022/08/02 10:25:45;;;;;;;5.05;1.17;;;;;;;;;;4839650;29;20030;-66
2022/08/02 10:28:13;;;;;;;2.92;1.30;;;;;;;;;;4840016;29;20046;-66
2022/08/02 10:30:41;;;;;;;2.30;1.27;;;;;;;;;;4840431;29;20036;-66
2022/08/02 10:33:09;;;;;;;2.90;1.35;;;;;;;;;;4823647;29;20044;-66
2022/08/02 10:35:37;;;;;;;1.50;1.17;;;;;;;;;;4839872;29;20033;-66
2022/08/02 10:38:06;;;;;;;8.93;1.50;;;;;;;;;;4840248;29;20046;-66
2022/08/02 10:40:45;;;;;;;3.38;1.70;;;;;;;;;;4848064;29;20041;-65
2022/08/02 10:43:13;;;;;;;1.83;1.30;;;;;;;;;;4858508;29;20041;-65
2022/08/02 10:45:39;;;;;;;4.55;1.27;;;;;;;;;;4858570;29;20040;-67
2022/08/02 10:48:08;;;;;;;6.13;1.38;;;;;;;;;;4858436;29;20028;-66
2022/08/02 10:50:47;;;;;;;2.42;1.17;;;;;;;;;;4858360;29;20029;-66
2022/08/02 10:53:29;;;;;;;1.30;1.08;;;;;;;;;;4858307;29;20102;-65
2022/08/02 10:56:04;;;;;;;3.35;1.40;;;;;;;;;;4841808;29;20052;-66
2022/08/02 10:58:32;;;;;;;2.97;1.10;;;;;;;;;;4858100;29;20083;-64
2022/08/02 11:01:19;;;;;;;3.65;1.40;;;;;;;;;;4841919;29;20055;-64
2022/08/02 11:03:45;;;;;;;2.88;1.10;;;;;;;;;;4834803;29;20041;-65
2022/08/02 11:06:13;;;;;;;5.85;1.20;;;;;;;;;;4858563;29;20069;-64
2022/08/02 11:08:40;;;;;;;4.00;1.05;;;;;;;;;;4858460;29;20034;-65
2022/08/02 11:11:09;;;;;;;2.22;1.00;;;;;;;;;;4858086;29;20034;-65
2022/08/02 11:13:54;;;;;;;4.25;0.98;;;;;;;;;;4858234;29;20021;-64
2022/08/02 11:16:20;;;;;;;4.40;1.30;;;;;;;;;;4857759;29;20029;-64
2022/08/02 11:18:49;;;;;;;0.63;0.50;;;;;;;;;;4857447;29;20060;-65
2022/08/02 11:21:23;;;;;;;3.85;0.60;;;;;;;;;;4858406;29;20502;-63
2022/08/02 11:23:50;;;;;;;0.60;0.50;;;;;;;;;;4856670;29;20032;-64
2022/08/02 11:26:28;;;;;;;2.20;0.70;;;;;;;;;;4858183;29;20032;-64
2022/08/02 11:28:55;;;;;;;1.40;0.90;;;;;;;;;;4857630;29;20435;-63
2022/08/02 11:31:22;;;;;;;1.08;0.30;;;;;;;;;;4854039;29;20484;-64
2022/08/02 11:33:49;;;;;;;6.85;0.80;;;;;;;;;;4837582;29;20030;-63
2022/08/02 11:36:16;;;;;;;2.97;0.82;;;;;;;;;;4838715;29;20056;-64
2022/08/02 11:38:42;;;;;;;0.40;0.40;;;;;;;;;;4842152;29;20042;-64
2022/08/02 11:41:09;;;;;;;0.68;0.40;;;;;;;;;;4855488;29;20025;-64
2022/08/02 11:43:36;;;;;;;0.47;0.43;;;;;;;;;;4855217;29;20056;-64
2022/08/02 11:46:03;;;;;;;1.77;0.40;;;;;;;;;;4842690;29;20484;-65
2022/08/02 11:48:31;;;;;;;1.33;0.40;;;;;;;;;;4842544;29;20034;-65
2022/08/02 11:51:10;;;;;;;2.10;0.45;;;;;;;;;;4843200;29;20411;-65
2022/08/02 11:53:44;;;;;;;1.17;0.30;;;;;;;;;;4842702;29;20033;-64
2022/08/02 11:56:11;;;;;;;0.77;0.45;;;;;;;;;;4826271;29;20056;-64
2022/08/02 11:58:38;;;;;;;0.60;0.40;;;;;;;;;;4843076;29;20034;-64
2022/08/02 12:01:04;;;;;;;0.60;0.40;;;;;;;;;;4840771;29;20041;-65
2022/08/02 12:03:40;;;;;;;0.98;0.30;;;;;;;;;;4841968;29;20042;-65
2022/08/02 12:06:06;;;;;;;1.52;0.40;;;;;;;;;;4842003;29;20103;-65
2022/08/02 12:08:33;;;;;;;2.90;0.50;;;;;;;;;;4841543;29;20033;-65
2022/08/02 12:11:03;;;;;;;2.38;0.40;;;;;;;;;;4843092;29;20026;-65
2022/08/02 12:13:43;;;;;;;3.50;0.43;;;;;;;;;;4842763;29;20030;-65
2022/08/02 12:21:43;;;;;;;1.98;0.40;;;;;;;;;;4845180;29;20026;-66
2022/08/02 12:24:10;;;;;;;1.00;0.40;;;;;;;;;;4824719;29;20045;-66
2022/08/02 12:26:43;;;;;;;1.65;0.50;;;;;;;;;;4842101;29;20022;-66
2022/08/02 12:29:10;;;;;;;4.32;0.40;;;;;;;;;;4842264;29;20030;-66
2022/08/02 12:31:41;;;;;;;5.88;0.50;;;;;;;;;;4842332;29;20548;-66
2022/08/02 12:34:19;;;;;;;2.47;0.50;;;;;;;;;;4842196;29;20044;-66
2022/08/02 12:36:59;;;;;;;1.58;0.40;;;;;;;;;;4842116;29;20045;-66
2022/08/02 12:39:40;;;;;;;1.13;0.50;;;;;;;;;;4839925;29;20036;-66
2022/08/02 12:42:08;;;;;;;1.08;0.45;;;;;;;;;;4841548;29;20381;-66
2022/08/02 12:44:36;;;;;;;1.20;0.45;;;;;;;;;;4841615;29;20312;-66
2022/08/02 12:47:03;;;;;;;1.13;0.52;;;;;;;;;;4842260;29;20041;-67
2022/08/02 12:49:30;;;;;;;2.08;0.40;;;;;;;;;;4841109;29;20033;-66
2022/08/02 12:51:57;;;;;;;1.17;0.50;;;;;;;;;;4844890;29;20034;-66
2022/08/02 12:54:24;;;;;;;0.65;0.47;;;;;;;;;;4841998;29;20038;-66
2022/08/02 12:56:51;;;;;;;0.75;0.50;;;;;;;;;;4841711;29;20054;-66
2022/08/02 12:59:32;;;;;;;0.75;0.50;;;;;;;;;;4841289;29;20381;-65
2022/08/02 13:02:03;;;;;;;1.42;0.40;;;;;;;;;;4841550;29;20040;-65
2022/08/02 13:04:29;;;;;;;1.90;0.50;;;;;;;;;;4841707;29;20022;-65
2022/08/02 13:06:56;;;;;;;0.50;0.50;;;;;;;;;;4841071;29;20022;-66
2022/08/02 13:09:22;;;;;;;0.40;0.40;;;;;;;;;;4841706;29;20026;-66
2022/08/02 13:11:48;;;;;;;1.90;0.43;;;;;;;;;;4841495;29;20030;-65
2022/08/02 13:14:15;;;;;;;0.75;0.40;;;;;;;;;;4841390;29;20038;-65
2022/08/02 13:16:43;;;;;;;0.30;0.30;;;;;;;;;;4841647;29;20045;-65
2022/08/02 13:19:09;;;;;;;4.13;0.60;;;;;;;;;;4849485;29;20053;-65
2022/08/02 13:21:36;;;;;;;0.55;0.55;;;;;;;;;;4857099;29;20040;-65
2022/08/02 13:24:02;;;;;;;0.40;0.40;;;;;;;;;;4844120;29;20395;-65
2022/08/02 13:26:28;;;;;;;0.63;0.50;;;;;;;;;;4840932;29;20500;-65
2022/08/02 13:28:55;;;;;;;0.65;0.60;;;;;;;;;;4840856;29;20034;-65
2022/08/02 13:31:22;;;;;;;4.50;0.52;;;;;;;;;;4841576;29;20026;-65
2022/08/02 13:33:48;;;;;;;2.15;0.75;;;;;;;;;;4841073;29;20048;-65
2022/08/02 13:36:15;;;;;;;2.97;0.60;;;;;;;;;;4841009;29;20038;-66
2022/08/02 13:38:41;;;;;;;0.60;0.50;;;;;;;;;;4841359;29;20028;-66
2022/08/02 13:41:07;;;;;;;1.52;0.70;;;;;;;;;;4853888;29;20037;-66
2022/08/02 13:43:34;;;;;;;4.35;0.80;;;;;;;;;;4854839;29;20030;-65
2022/08/02 13:46:00;;;;;;;2.50;0.80;;;;;;;;;;4840699;29;20038;-66
2022/08/02 13:48:27;;;;;;;0.75;0.60;;;;;;;;;;4825030;29;20046;-66
2022/08/02 13:50:53;;;;;;;3.47;0.77;;;;;;;;;;4841301;29;20041;-66
2022/08/02 13:53:20;;;;;;;3.03;0.60;;;;;;;;;;4840638;29;20513;-66
2022/08/02 13:55:46;;;;;;;1.33;0.80;;;;;;;;;;4840681;29;20428;-66
2022/08/02 13:58:12;;;;;;;0.75;0.73;;;;;;;;;;4824157;29;20044;-66
2022/08/02 14:00:39;;;;;;;1.30;0.80;;;;;;;;;;4823438;29;20038;-67
2022/08/02 14:03:06;;;;;;;1.20;0.90;;;;;;;;;;4840693;29;20036;-66
2022/08/02 14:05:36;;;;;;;1.30;0.73;;;;;;;;;;4824268;29;20372;-66
2022/08/02 14:08:02;;;;;;;1.23;0.80;;;;;;;;;;4840336;29;20498;-66
2022/08/02 14:10:28;;;;;;;0.70;0.70;;;;;;;;;;4840144;29;20407;-66
2022/08/02 14:12:55;;;;;;;0.73;0.65;;;;;;;;;;4840082;29;20038;-66
2022/08/02 14:15:21;;;;;;;0.70;0.70;;;;;;;;;;4840373;29;20391;-66
2022/08/02 14:17:47;;;;;;;1.08;0.60;;;;;;;;;;4840376;29;20074;-66
2022/08/02 14:20:14;;;;;;;1.90;0.73;;;;;;;;;;4857149;29;20021;-66
2022/08/02 14:22:40;;;;;;;1.02;0.70;;;;;;;;;;4858951;29;20033;-66
2022/08/02 14:25:07;;;;;;;0.80;0.60;;;;;;;;;;4859316;29;20025;-66
2022/08/02 14:27:33;;;;;;;2.42;0.70;;;;;;;;;;4841190;29;20074;-66
2022/08/02 14:30:00;;;;;;;2.15;0.75;;;;;;;;;;4839681;29;20030;-66
2022/08/02 14:32:26;;;;;;;2.95;0.80;;;;;;;;;;4839329;29;20034;-66
2022/08/02 14:34:53;;;;;;;4.80;0.85;;;;;;;;;;4840305;29;20022;-66
2022/08/02 14:37:19;;;;;;;3.78;0.70;;;;;;;;;;4839836;29;20050;-66
2022/08/02 14:39:45;;;;;;;2.08;0.80;;;;;;;;;;4842147;29;20487;-66
2022/08/02 14:42:12;;;;;;;0.80;0.60;;;;;;;;;;4858212;29;20447;-66
2022/08/02 14:44:38;;;;;;;0.70;0.55;;;;;;;;;;4843918;29;20042;-66
2022/08/02 14:47:05;;;;;;;4.60;0.68;;;;;;;;;;4839686;29;20028;-66
2022/08/02 14:49:31;;;;;;;1.85;0.75;;;;;;;;;;4839908;29;20085;-66
2022/08/02 14:51:57;;;;;;;1.65;0.60;;;;;;;;;;4838591;29;20488;-66
2022/08/02 14:54:30;;;;;;;2.85;0.80;;;;;;;;;;4839868;29;20411;-66
2022/08/02 14:56:56;;;;;;;0.50;0.50;;;;;;;;;;4822915;29;20052;-66